createdAt,value
2018-12-30T00:00:07.173Z,110.63
2018-12-30T00:00:42.558Z,117.65
2018-12-30T00:01:18.227Z,131.18
2018-12-30T00:01:53.639Z,124.53
2018-12-30T00:02:29.250Z,121.72
2018-12-30T00:03:04.975Z,124.35
2018-12-30T00:03:40.861Z,107.43
2018-12-30T00:04:16.819Z,87.78
2018-12-30T00:04:52.462Z,119.10
2018-12-30T00:05:27.856Z,92.30
2018-12-30T00:06:03.935Z,132.27
2018-12-30T00:06:40.244Z,108.85
2018-12-30T00:07:16.036Z,113.80
2018-12-30T00:07:51.661Z,119.72
2018-12-30T00:08:27.677Z,98.72
2018-12-30T00:09:03.466Z,105.92
2018-12-30T00:09:38.875Z,102.32
2018-12-30T00:10:14.382Z,102.32
2018-12-30T00:10:49.816Z,96.45
2018-12-30T00:11:25.138Z,103.75
2018-12-30T00:12:00.876Z,110.22
2018-12-30T00:12:36.409Z,99.92
2018-12-30T00:13:12.281Z,111.22
2018-12-30T00:13:47.575Z,117.30
2018-12-30T00:14:22.948Z,103.58
2018-12-30T00:14:58.206Z,115.92
2018-12-30T00:15:33.538Z,119.37
2018-12-30T00:16:09.047Z,83.12
2018-12-30T00:16:44.453Z,109.75
2018-12-30T00:17:19.957Z,104.50
2018-12-30T00:17:55.609Z,117.17
2018-12-30T00:18:31.308Z,113.70
2018-12-30T00:19:06.601Z,114.00
2018-12-30T00:19:42.354Z,100.20
2018-12-30T00:20:17.918Z,109.32
2018-12-30T00:20:53.280Z,77.17
2018-12-30T00:21:28.999Z,84.55
2018-12-30T00:22:04.648Z,99.97
2018-12-30T00:22:40.179Z,101.67
2018-12-30T00:23:15.497Z,119.08
2018-12-30T00:23:50.819Z,98.97
2018-12-30T00:24:26.438Z,87.00
2018-12-30T00:25:02.138Z,96.85
2018-12-30T00:25:37.499Z,90.62
2018-12-30T00:26:12.827Z,111.20
2018-12-30T00:26:48.268Z,108.17
2018-12-30T00:27:23.539Z,101.15
2018-12-30T00:27:59.071Z,94.28
2018-12-30T00:28:36.286Z,99.20
2018-12-30T00:29:11.749Z,99.05
2018-12-30T00:29:47.259Z,88.58
2018-12-30T00:30:22.660Z,111.03
2018-12-30T00:30:57.857Z,84.92
2018-12-30T00:31:33.359Z,107.67
2018-12-30T00:32:08.700Z,98.92
2018-12-30T00:32:44.769Z,115.97
2018-12-30T00:33:20.472Z,114.72
2018-12-30T00:33:56.331Z,99.77
2018-12-30T00:34:31.697Z,99.10
2018-12-30T00:35:07.525Z,94.40
2018-12-30T00:35:43.050Z,106.07
2018-12-30T00:36:18.313Z,101.05
2018-12-30T00:36:53.681Z,100.02
2018-12-30T00:37:29.142Z,96.17
2018-12-30T00:38:04.620Z,92.35
2018-12-30T00:38:40.118Z,88.50
2018-12-30T00:39:15.448Z,98.67
2018-12-30T00:39:50.850Z,104.70
2018-12-30T00:40:26.294Z,108.60
2018-12-30T00:41:01.690Z,105.97
2018-12-30T00:41:37.231Z,91.75
2018-12-30T00:42:12.761Z,114.77
2018-12-30T00:42:48.239Z,100.82
2018-12-30T00:43:23.740Z,112.20
2018-12-30T00:43:59.421Z,90.42
2018-12-30T00:44:34.791Z,86.87
2018-12-30T00:45:10.391Z,91.55
2018-12-30T00:45:45.809Z,101.47
2018-12-30T00:46:21.345Z,93.52
2018-12-30T00:46:56.586Z,91.30
2018-12-30T00:47:31.948Z,87.92
2018-12-30T00:48:07.316Z,80.53
2018-12-30T00:48:43.071Z,66.35
2018-12-30T00:49:18.638Z,60.43
2018-12-30T00:49:54.255Z,81.50
2018-12-30T00:50:29.706Z,91.63
2018-12-30T00:51:05.363Z,73.15
2018-12-30T00:51:40.780Z,89.83
2018-12-30T00:52:16.244Z,95.42
2018-12-30T00:52:51.644Z,82.65
2018-12-30T00:53:27.576Z,89.20
2018-12-30T00:54:03.004Z,105.20
2018-12-30T00:54:38.445Z,83.50
2018-12-30T00:55:13.876Z,93.07
2018-12-30T00:55:49.464Z,98.27
2018-12-30T00:56:24.960Z,97.45
2018-12-30T00:57:00.679Z,86.60
2018-12-30T00:57:36.059Z,87.17
2018-12-30T00:58:11.370Z,89.17
2018-12-30T00:58:46.959Z,89.97
2018-12-30T00:59:22.401Z,94.20
2018-12-30T00:59:57.960Z,107.95
2018-12-30T01:00:33.360Z,92.55
2018-12-30T01:01:08.948Z,103.25
2018-12-30T01:01:44.401Z,91.95
2018-12-30T01:02:20.110Z,107.35
2018-12-30T01:02:55.534Z,100.12
2018-12-30T01:03:31.308Z,86.67
2018-12-30T01:04:07.197Z,97.10
2018-12-30T01:04:43.160Z,97.65
2018-12-30T01:05:18.601Z,92.95
2018-12-30T01:05:54.258Z,94.22
2018-12-30T01:06:29.784Z,87.08
2018-12-30T01:07:05.651Z,81.32
2018-12-30T01:07:41.279Z,65.20
2018-12-30T01:08:16.763Z,81.72
2018-12-30T01:08:52.240Z,70.32
2018-12-30T01:09:27.839Z,84.37
2018-12-30T01:10:03.948Z,88.60
2018-12-30T01:10:39.541Z,99.77
2018-12-30T01:11:15.676Z,90.57
2018-12-30T01:11:51.249Z,74.25
2018-12-30T01:12:27.030Z,84.97
2018-12-30T01:13:02.842Z,87.67
2018-12-30T01:13:38.460Z,97.65
2018-12-30T01:14:15.326Z,107.05
2018-12-30T01:14:50.700Z,99.87
2018-12-30T01:15:26.523Z,93.55
2018-12-30T01:16:02.468Z,78.22
2018-12-30T01:16:38.028Z,65.57
2018-12-30T01:17:13.879Z,82.55
2018-12-30T01:17:49.833Z,78.15
2018-12-30T01:18:25.488Z,72.72
2018-12-30T01:19:01.119Z,92.70
2018-12-30T01:19:37.029Z,89.62
2018-12-30T01:20:12.731Z,95.95
2018-12-30T01:20:49.030Z,95.30
2018-12-30T01:21:25.406Z,94.92
2018-12-30T01:22:01.651Z,78.52
2018-12-30T01:22:37.394Z,61.90
2018-12-30T01:23:13.508Z,82.85
2018-12-30T01:23:49.440Z,79.75
2018-12-30T01:24:26.578Z,85.90
2018-12-30T01:25:02.282Z,92.67
2018-12-30T01:25:37.969Z,95.60
2018-12-30T01:26:13.695Z,92.70
2018-12-30T01:26:49.438Z,66.92
2018-12-30T01:27:25.640Z,99.05
2018-12-30T01:28:01.075Z,93.67
2018-12-30T01:28:37.899Z,68.22
2018-12-30T01:29:14.119Z,100.78
2018-12-30T01:29:54.348Z,87.67
2018-12-30T01:30:29.898Z,75.37
2018-12-30T01:31:05.320Z,55.08
2018-12-30T01:31:41.327Z,88.25
2018-12-30T01:32:17.199Z,83.87
2018-12-30T01:32:53.110Z,91.50
2018-12-30T01:33:28.577Z,82.88
2018-12-30T01:34:04.660Z,82.60
2018-12-30T01:34:40.520Z,64.50
2018-12-30T01:35:16.212Z,84.75
2018-12-30T01:35:51.571Z,102.53
2018-12-30T01:36:27.368Z,84.70
2018-12-30T01:37:02.808Z,98.58
2018-12-30T01:37:40.006Z,82.00
2018-12-30T01:38:15.538Z,94.97
2018-12-30T01:38:51.993Z,77.90
2018-12-30T01:39:27.428Z,54.35
2018-12-30T01:40:03.205Z,79.60
2018-12-30T01:40:38.498Z,78.12
2018-12-30T01:41:13.867Z,85.03
2018-12-30T01:41:49.408Z,68.20
2018-12-30T01:42:24.888Z,80.50
2018-12-30T01:43:00.219Z,85.80
2018-12-30T01:43:35.548Z,89.70
2018-12-30T01:44:10.906Z,62.83
2018-12-30T01:44:46.507Z,79.00
2018-12-30T01:45:22.008Z,76.07
2018-12-30T01:45:57.410Z,79.67
2018-12-30T01:46:32.861Z,84.35
2018-12-30T01:47:08.310Z,90.97
2018-12-30T01:47:43.949Z,88.27
2018-12-30T01:48:19.611Z,85.70
2018-12-30T01:48:55.337Z,82.70
2018-12-30T01:49:30.898Z,77.08
2018-12-30T01:50:06.765Z,75.42
2018-12-30T01:50:42.553Z,82.60
2018-12-30T01:51:18.014Z,88.42
2018-12-30T01:51:53.460Z,75.75
2018-12-30T01:52:28.879Z,67.87
2018-12-30T01:53:04.609Z,78.33
2018-12-30T01:53:40.149Z,55.17
2018-12-30T01:54:15.653Z,81.22
2018-12-30T01:54:51.106Z,68.60
2018-12-30T01:55:26.617Z,76.75
2018-12-30T01:56:02.075Z,71.67
2018-12-30T01:56:37.572Z,64.55
2018-12-30T01:57:13.104Z,81.85
2018-12-30T01:57:48.469Z,79.70
2018-12-30T01:58:23.863Z,67.67
2018-12-30T01:58:59.133Z,68.07
2018-12-30T01:59:34.521Z,60.43
2018-12-30T02:00:10.046Z,65.78
2018-12-30T02:00:45.352Z,72.37
2018-12-30T02:01:20.888Z,68.35
2018-12-30T02:01:56.365Z,75.55
2018-12-30T02:02:31.970Z,55.35
2018-12-30T02:03:07.636Z,68.40
2018-12-30T02:03:43.252Z,71.05
2018-12-30T02:04:18.605Z,66.33
2018-12-30T02:04:54.087Z,67.53
2018-12-30T02:05:29.599Z,69.58
2018-12-30T02:06:05.104Z,63.20
2018-12-30T02:06:40.554Z,82.65
2018-12-30T02:07:15.973Z,83.75
2018-12-30T02:07:51.281Z,68.30
2018-12-30T02:08:26.792Z,63.73
2018-12-30T02:09:02.222Z,61.80
2018-12-30T02:09:37.572Z,80.47
2018-12-30T02:10:13.021Z,64.53
2018-12-30T02:10:48.532Z,71.28
2018-12-30T02:11:24.259Z,75.75
2018-12-30T02:11:59.642Z,68.33
2018-12-30T02:12:35.068Z,70.57
2018-12-30T02:13:10.447Z,72.22
2018-12-30T02:13:45.773Z,69.05
2018-12-30T02:14:21.304Z,73.52
2018-12-30T02:14:57.331Z,73.60
2018-12-30T02:15:32.664Z,75.92
2018-12-30T02:16:08.205Z,70.85
2018-12-30T02:16:43.953Z,68.20
2018-12-30T02:17:19.189Z,81.22
2018-12-30T02:17:54.722Z,71.07
2018-12-30T02:18:30.197Z,83.15
2018-12-30T02:19:05.448Z,74.80
2018-12-30T02:19:40.703Z,75.00
2018-12-30T02:20:16.311Z,69.07
2018-12-30T02:20:51.699Z,75.80
2018-12-30T02:21:27.116Z,76.22
2018-12-30T02:22:02.559Z,89.65
2018-12-30T02:22:37.986Z,88.62
2018-12-30T02:23:13.419Z,75.87
2018-12-30T02:23:48.837Z,81.55
2018-12-30T02:24:24.111Z,79.12
2018-12-30T02:24:59.639Z,79.22
2018-12-30T02:25:35.818Z,78.17
2018-12-30T02:26:11.386Z,78.00
2018-12-30T02:26:46.971Z,82.60
2018-12-30T02:27:23.064Z,74.25
2018-12-30T02:27:59.030Z,76.77
2018-12-30T02:28:34.756Z,59.77
2018-12-30T02:29:10.525Z,68.57
2018-12-30T02:29:46.209Z,80.07
2018-12-30T02:30:21.676Z,75.32
2018-12-30T02:30:57.260Z,74.15
2018-12-30T02:31:32.915Z,68.10
2018-12-30T02:32:08.456Z,70.45
2018-12-30T02:32:44.091Z,71.40
2018-12-30T02:33:19.512Z,80.95
2018-12-30T02:33:55.112Z,91.60
2018-12-30T02:34:30.695Z,90.28
2018-12-30T02:35:06.256Z,73.85
2018-12-30T02:35:41.722Z,82.72
2018-12-30T02:36:17.351Z,71.75
2018-12-30T02:36:53.328Z,84.72
2018-12-30T02:37:28.786Z,76.15
2018-12-30T02:38:04.439Z,79.65
2018-12-30T02:38:40.324Z,58.83
2018-12-30T02:39:15.843Z,65.40
2018-12-30T02:39:51.470Z,53.92
2018-12-30T02:40:27.028Z,67.78
2018-12-30T02:41:02.552Z,69.25
2018-12-30T02:41:38.044Z,68.20
2018-12-30T02:42:13.723Z,63.63
2018-12-30T02:42:49.213Z,63.63
2018-12-30T02:43:24.724Z,76.57
2018-12-30T02:44:00.354Z,67.75
2018-12-30T02:44:36.001Z,70.03
2018-12-30T02:45:11.472Z,82.00
2018-12-30T02:45:47.027Z,73.87
2018-12-30T02:46:22.724Z,83.10
2018-12-30T02:46:58.278Z,102.70
2018-12-30T02:47:33.836Z,71.42
2018-12-30T02:48:09.649Z,73.10
2018-12-30T02:48:45.225Z,52.20
2018-12-30T02:49:20.946Z,73.47
2018-12-30T02:49:57.067Z,74.80
2018-12-30T02:50:32.672Z,73.05
2018-12-30T02:51:08.195Z,69.32
2018-12-30T02:51:50.311Z,71.02
2018-12-30T02:52:21.175Z,68.50
2018-12-30T02:52:56.603Z,71.42
2018-12-30T02:53:32.356Z,71.55
2018-12-30T02:54:07.963Z,72.20
2018-12-30T02:54:43.483Z,76.82
2018-12-30T02:55:18.848Z,87.65
2018-12-30T02:55:54.415Z,75.12
2018-12-30T02:56:30.010Z,72.55
2018-12-30T02:57:05.563Z,52.13
2018-12-30T02:57:41.130Z,66.97
2018-12-30T02:58:16.627Z,74.10
2018-12-30T02:58:52.149Z,65.57
2018-12-30T02:59:27.542Z,57.67
2018-12-30T03:00:03.415Z,51.77
2018-12-30T03:00:39.045Z,66.60
2018-12-30T03:01:14.805Z,67.62
2018-12-30T03:01:50.611Z,72.35
2018-12-30T03:02:26.222Z,64.00
2018-12-30T03:03:01.961Z,64.27
2018-12-30T03:03:37.925Z,67.00
2018-12-30T03:04:13.535Z,56.55
2018-12-30T03:04:49.011Z,64.22
2018-12-30T03:05:24.647Z,61.68
2018-12-30T03:06:00.069Z,62.60
2018-12-30T03:06:35.806Z,59.18
2018-12-30T03:07:11.376Z,66.75
2018-12-30T03:07:46.860Z,55.17
2018-12-30T03:08:22.348Z,57.15
2018-12-30T03:08:57.842Z,63.65
2018-12-30T03:09:33.273Z,46.95
2018-12-30T03:10:08.626Z,56.88
2018-12-30T03:10:44.535Z,55.05
2018-12-30T03:11:20.616Z,48.98
2018-12-30T03:11:56.095Z,60.25
2018-12-30T03:12:31.699Z,64.40
2018-12-30T03:13:07.285Z,48.23
2018-12-30T03:13:42.706Z,55.25
2018-12-30T03:14:18.211Z,53.05
2018-12-30T03:14:53.918Z,53.45
2018-12-30T03:15:32.156Z,57.48
2018-12-30T03:16:07.693Z,59.83
2018-12-30T03:16:43.247Z,54.05
2018-12-30T03:17:18.773Z,54.93
2018-12-30T03:17:54.179Z,62.88
2018-12-30T03:18:29.635Z,60.88
2018-12-30T03:19:05.118Z,54.13
2018-12-30T03:19:40.714Z,54.18
2018-12-30T03:20:16.534Z,49.95
2018-12-30T03:20:52.218Z,49.13
2018-12-30T03:21:28.197Z,58.63
2018-12-30T03:22:03.650Z,48.95
2018-12-30T03:22:39.073Z,59.15
2018-12-30T03:23:14.487Z,47.55
2018-12-30T03:23:50.070Z,52.93
2018-12-30T03:24:25.479Z,56.55
2018-12-30T03:25:00.913Z,61.80
2018-12-30T03:25:36.547Z,63.83
2018-12-30T03:26:12.071Z,55.67
2018-12-30T03:26:47.670Z,59.13
2018-12-30T03:27:23.320Z,64.85
2018-12-30T03:27:59.225Z,56.73
2018-12-30T03:28:34.927Z,54.88
2018-12-30T03:29:10.582Z,55.92
2018-12-30T03:29:46.160Z,56.80
2018-12-30T03:30:21.608Z,50.70
2018-12-30T03:30:57.253Z,54.75
2018-12-30T03:31:32.679Z,53.60
2018-12-30T03:32:08.202Z,56.60
2018-12-30T03:32:44.053Z,61.23
2018-12-30T03:33:19.492Z,61.20
2018-12-30T03:33:55.011Z,53.10
2018-12-30T03:34:30.566Z,57.80
2018-12-30T03:35:06.388Z,50.45
2018-12-30T03:35:41.833Z,46.20
2018-12-30T03:36:17.415Z,56.23
2018-12-30T03:36:52.985Z,48.13
2018-12-30T03:37:28.714Z,51.28
2018-12-30T03:38:04.377Z,44.23
2018-12-30T03:38:40.383Z,39.13
2018-12-30T03:39:16.022Z,55.98
2018-12-30T03:39:51.567Z,46.83
2018-12-30T03:40:27.104Z,54.03
2018-12-30T03:41:02.663Z,58.17
2018-12-30T03:41:38.294Z,56.53
2018-12-30T03:42:13.744Z,53.83
2018-12-30T03:42:49.198Z,48.75
2018-12-30T03:43:24.663Z,54.53
2018-12-30T03:44:00.155Z,48.38
2018-12-30T03:44:35.616Z,54.90
2018-12-30T03:45:11.282Z,54.33
2018-12-30T03:45:47.235Z,53.10
2018-12-30T03:46:22.754Z,52.05
2018-12-30T03:46:58.074Z,42.90
2018-12-30T03:47:33.492Z,45.15
2018-12-30T03:48:08.996Z,54.90
2018-12-30T03:48:44.560Z,52.48
2018-12-30T03:49:20.063Z,53.83
2018-12-30T03:49:55.574Z,55.65
2018-12-30T03:50:31.092Z,50.43
2018-12-30T03:51:06.391Z,53.68
2018-12-30T03:51:41.948Z,46.80
2018-12-30T03:52:17.445Z,50.35
2018-12-30T03:52:53.163Z,46.18
2018-12-30T03:53:28.970Z,40.52
2018-12-30T03:54:04.496Z,47.43
2018-12-30T03:54:40.434Z,46.92
2018-12-30T03:55:16.154Z,45.30
2018-12-30T03:55:51.578Z,41.70
2018-12-30T03:56:27.004Z,36.80
2018-12-30T03:57:02.429Z,37.23
2018-12-30T03:57:37.751Z,42.85
2018-12-30T03:58:13.323Z,45.78
2018-12-30T03:58:48.871Z,44.45
2018-12-30T03:59:24.372Z,44.88
2018-12-30T04:00:01.200Z,47.43
2018-12-30T04:00:37.164Z,49.23
2018-12-30T04:01:14.897Z,40.50
2018-12-30T04:01:50.396Z,38.40
2018-12-30T04:02:25.837Z,41.73
2018-12-30T04:03:01.634Z,38.08
2018-12-30T04:03:37.199Z,41.85
2018-12-30T04:04:12.914Z,40.55
2018-12-30T04:04:48.557Z,50.28
2018-12-30T04:05:24.201Z,44.95
2018-12-30T04:05:59.726Z,49.65
2018-12-30T04:06:35.167Z,40.85
2018-12-30T04:07:10.786Z,50.78
2018-12-30T04:07:46.379Z,40.05
2018-12-30T04:08:21.964Z,43.55
2018-12-30T04:08:57.411Z,44.45
2018-12-30T04:09:32.925Z,41.90
2018-12-30T04:10:08.901Z,34.85
2018-12-30T04:10:44.325Z,39.80
2018-12-30T04:11:19.780Z,43.20
2018-12-30T04:11:55.162Z,44.63
2018-12-30T04:12:30.696Z,42.65
2018-12-30T04:13:06.418Z,42.70
2018-12-30T04:13:41.890Z,42.27
2018-12-30T04:14:17.413Z,42.95
2018-12-30T04:14:52.929Z,42.73
2018-12-30T04:15:28.469Z,48.55
2018-12-30T04:16:07.334Z,38.40
2018-12-30T04:16:43.040Z,37.05
2018-12-30T04:17:18.621Z,42.17
2018-12-30T04:17:54.277Z,44.08
2018-12-30T04:18:30.044Z,48.52
2018-12-30T04:19:05.642Z,52.70
2018-12-30T04:19:41.150Z,43.48
2018-12-30T04:20:17.198Z,43.98
2018-12-30T04:20:52.780Z,49.05
2018-12-30T04:21:28.986Z,47.93
2018-12-30T04:22:04.664Z,47.83
2018-12-30T04:22:40.291Z,43.45
2018-12-30T04:23:15.781Z,46.53
2018-12-30T04:23:51.551Z,48.48
2018-12-30T04:24:28.248Z,44.05
2018-12-30T04:25:03.785Z,41.25
2018-12-30T04:25:39.467Z,47.10
2018-12-30T04:26:14.931Z,47.88
2018-12-30T04:26:50.274Z,46.37
2018-12-30T04:27:25.952Z,47.45
2018-12-30T04:28:01.489Z,44.25
2018-12-30T04:28:37.033Z,48.20
2018-12-30T04:29:12.675Z,45.25
2018-12-30T04:29:48.083Z,47.30
2018-12-30T04:30:23.402Z,47.85
2018-12-30T04:30:59.066Z,44.23
2018-12-30T04:31:34.521Z,47.17
2018-12-30T04:32:10.156Z,52.55
2018-12-30T04:32:45.673Z,41.50
2018-12-30T04:33:21.102Z,50.60
2018-12-30T04:33:56.620Z,48.52
2018-12-30T04:34:32.155Z,50.08
2018-12-30T04:35:07.967Z,49.70
2018-12-30T04:35:43.252Z,48.20
2018-12-30T04:36:18.862Z,46.77
2018-12-30T04:36:54.208Z,51.23
2018-12-30T04:37:30.162Z,48.02
2018-12-30T04:38:06.191Z,46.13
2018-12-30T04:38:41.773Z,45.17
2018-12-30T04:39:17.266Z,46.85
2018-12-30T04:39:52.724Z,43.52
2018-12-30T04:40:28.345Z,48.75
2018-12-30T04:41:03.792Z,46.35
2018-12-30T04:41:39.364Z,50.10
2018-12-30T04:42:14.919Z,50.20
2018-12-30T04:42:50.474Z,49.13
2018-12-30T04:43:26.001Z,38.92
2018-12-30T04:44:01.520Z,44.93
2018-12-30T04:44:37.042Z,50.80
2018-12-30T04:45:13.018Z,45.88
2018-12-30T04:45:48.451Z,51.63
2018-12-30T04:46:24.052Z,47.17
2018-12-30T04:46:59.701Z,44.05
2018-12-30T04:47:35.346Z,52.58
2018-12-30T04:48:10.885Z,46.25
2018-12-30T04:48:46.447Z,41.63
2018-12-30T04:49:22.111Z,41.68
2018-12-30T04:49:57.750Z,45.35
2018-12-30T04:50:33.311Z,44.38
2018-12-30T04:51:08.739Z,47.58
2018-12-30T04:51:44.204Z,45.12
2018-12-30T04:52:25.575Z,49.63
2018-12-30T04:52:57.072Z,52.25
2018-12-30T04:53:32.793Z,51.30
2018-12-30T04:54:08.474Z,49.38
2018-12-30T04:54:44.246Z,49.18
2018-12-30T04:55:19.859Z,50.78
2018-12-30T04:55:55.241Z,53.58
2018-12-30T04:56:30.804Z,52.38
2018-12-30T04:57:06.368Z,48.38
2018-12-30T04:57:42.111Z,47.53
2018-12-30T04:58:17.819Z,50.63
2018-12-30T04:58:53.427Z,50.78
2018-12-30T04:59:28.859Z,52.65
2018-12-30T05:00:04.411Z,54.80
2018-12-30T05:00:39.946Z,49.27
2018-12-30T05:01:15.474Z,50.00
2018-12-30T05:01:51.067Z,54.60
2018-12-30T05:02:26.491Z,51.98
2018-12-30T05:03:02.036Z,53.90
2018-12-30T05:03:37.607Z,38.70
2018-12-30T05:04:13.128Z,48.13
2018-12-30T05:04:48.771Z,49.27
2018-12-30T05:05:24.198Z,51.53
2018-12-30T05:05:59.808Z,48.20
2018-12-30T05:06:35.224Z,56.15
2018-12-30T05:07:10.970Z,54.45
2018-12-30T05:07:46.423Z,47.20
2018-12-30T05:08:21.941Z,35.70
2018-12-30T05:08:58.040Z,47.90
2018-12-30T05:09:33.547Z,41.18
2018-12-30T05:10:09.074Z,40.78
2018-12-30T05:10:44.630Z,51.25
2018-12-30T05:11:20.290Z,49.77
2018-12-30T05:11:56.010Z,51.40
2018-12-30T05:12:31.492Z,47.75
2018-12-30T05:13:06.761Z,45.98
2018-12-30T05:13:42.386Z,43.80
2018-12-30T05:14:18.179Z,50.25
2018-12-30T05:14:54.029Z,53.85
2018-12-30T05:15:29.816Z,51.37
2018-12-30T05:16:05.622Z,48.73
2018-12-30T05:16:41.159Z,50.30
2018-12-30T05:17:16.685Z,44.42
2018-12-30T05:17:52.098Z,54.27
2018-12-30T05:18:27.543Z,56.10
2018-12-30T05:19:03.477Z,55.78
2018-12-30T05:19:38.935Z,51.28
2018-12-30T05:20:14.490Z,52.73
2018-12-30T05:20:50.206Z,44.53
2018-12-30T05:21:25.575Z,52.20
2018-12-30T05:22:00.836Z,49.03
2018-12-30T05:22:36.506Z,50.80
2018-12-30T05:23:11.950Z,50.45
2018-12-30T05:23:47.357Z,51.53
2018-12-30T05:24:23.065Z,46.58
2018-12-30T05:24:59.027Z,48.73
2018-12-30T05:25:34.720Z,48.98
2018-12-30T05:26:10.187Z,47.03
2018-12-30T05:26:45.726Z,56.15
2018-12-30T05:27:21.167Z,47.05
2018-12-30T05:27:56.877Z,47.98
2018-12-30T05:28:32.447Z,49.95
2018-12-30T05:29:08.006Z,51.48
2018-12-30T05:29:43.713Z,45.67
2018-12-30T05:30:19.023Z,48.15
2018-12-30T05:30:54.487Z,47.30
2018-12-30T05:31:29.906Z,47.58
2018-12-30T05:32:05.316Z,39.67
2018-12-30T05:32:41.139Z,45.88
2018-12-30T05:33:17.168Z,44.67
2018-12-30T05:33:52.656Z,43.23
2018-12-30T05:34:28.077Z,45.20
2018-12-30T05:35:03.682Z,44.88
2018-12-30T05:35:39.286Z,43.13
2018-12-30T05:36:14.928Z,41.83
2018-12-30T05:36:50.484Z,41.37
2018-12-30T05:37:26.336Z,44.73
2018-12-30T05:38:01.964Z,40.03
2018-12-30T05:38:37.414Z,42.05
2018-12-30T05:39:12.832Z,38.35
2018-12-30T05:39:48.304Z,43.15
2018-12-30T05:40:23.804Z,41.95
2018-12-30T05:40:59.320Z,47.00
2018-12-30T05:41:34.855Z,44.73
2018-12-30T05:42:11.311Z,47.60
2018-12-30T05:42:46.793Z,45.55
2018-12-30T05:43:22.286Z,36.23
2018-12-30T05:43:57.734Z,44.00
2018-12-30T05:44:33.318Z,43.30
2018-12-30T05:45:09.083Z,38.88
2018-12-30T05:45:44.813Z,43.35
2018-12-30T05:46:20.466Z,41.55
2018-12-30T05:46:55.874Z,49.30
2018-12-30T05:47:31.415Z,47.65
2018-12-30T05:48:07.073Z,42.00
2018-12-30T05:48:42.926Z,46.88
2018-12-30T05:49:18.245Z,42.62
2018-12-30T05:49:53.552Z,39.20
2018-12-30T05:50:29.094Z,42.10
2018-12-30T05:51:04.471Z,41.53
2018-12-30T05:51:40.039Z,47.70
2018-12-30T05:52:15.493Z,38.60
2018-12-30T05:52:51.015Z,37.78
2018-12-30T05:53:26.466Z,38.25
2018-12-30T05:54:01.967Z,39.65
2018-12-30T05:54:37.411Z,39.30
2018-12-30T05:55:12.755Z,40.67
2018-12-30T05:55:48.267Z,38.40
2018-12-30T05:56:23.879Z,41.68
2018-12-30T05:56:59.381Z,44.23
2018-12-30T05:57:34.919Z,41.55
2018-12-30T05:58:10.503Z,41.28
2018-12-30T05:58:46.049Z,40.55
2018-12-30T05:59:21.483Z,43.60
2018-12-30T05:59:56.979Z,41.95
2018-12-30T06:00:32.638Z,41.45
2018-12-30T06:01:08.048Z,45.95
2018-12-30T06:01:43.776Z,45.05
2018-12-30T06:02:19.340Z,44.75
2018-12-30T06:02:54.738Z,48.48
2018-12-30T06:03:30.698Z,45.17
2018-12-30T06:04:06.238Z,39.58
2018-12-30T06:04:41.765Z,43.73
2018-12-30T06:05:17.351Z,45.98
2018-12-30T06:05:52.825Z,40.78
2018-12-30T06:06:28.305Z,38.48
2018-12-30T06:07:03.891Z,46.83
2018-12-30T06:07:39.361Z,40.40
2018-12-30T06:08:14.822Z,45.35
2018-12-30T06:08:50.421Z,40.40
2018-12-30T06:09:25.831Z,46.45
2018-12-30T06:10:01.369Z,44.38
2018-12-30T06:10:37.025Z,48.13
2018-12-30T06:11:12.434Z,40.78
2018-12-30T06:11:47.998Z,41.18
2018-12-30T06:12:23.599Z,37.75
2018-12-30T06:12:59.135Z,43.15
2018-12-30T06:13:34.704Z,39.23
2018-12-30T06:14:10.103Z,38.33
2018-12-30T06:14:45.723Z,42.75
2018-12-30T06:15:21.169Z,42.45
2018-12-30T06:15:56.732Z,43.33
2018-12-30T06:16:32.245Z,43.00
2018-12-30T06:17:07.662Z,40.60
2018-12-30T06:17:42.979Z,40.30
2018-12-30T06:18:18.420Z,44.40
2018-12-30T06:18:53.805Z,43.40
2018-12-30T06:19:29.146Z,42.15
2018-12-30T06:20:04.986Z,45.88
2018-12-30T06:20:40.428Z,47.90
2018-12-30T06:21:15.976Z,47.85
2018-12-30T06:21:51.637Z,47.53
2018-12-30T06:22:27.148Z,44.45
2018-12-30T06:23:02.711Z,43.30
2018-12-30T06:23:38.190Z,42.53
2018-12-30T06:24:13.670Z,49.33
2018-12-30T06:24:49.174Z,41.75
2018-12-30T06:25:24.894Z,48.17
2018-12-30T06:26:00.332Z,46.37
2018-12-30T06:26:35.769Z,46.85
2018-12-30T06:27:11.802Z,41.33
2018-12-30T06:27:47.375Z,44.80
2018-12-30T06:28:22.878Z,42.50
2018-12-30T06:28:58.425Z,45.78
2018-12-30T06:29:33.956Z,42.33
2018-12-30T06:30:09.504Z,47.58
2018-12-30T06:30:45.004Z,48.13
2018-12-30T06:31:20.440Z,45.17
2018-12-30T06:31:55.972Z,47.30
2018-12-30T06:32:31.408Z,50.23
2018-12-30T06:33:06.841Z,44.30
2018-12-30T06:33:42.899Z,50.63
2018-12-30T06:34:18.223Z,52.58
2018-12-30T06:34:53.531Z,52.78
2018-12-30T06:35:28.967Z,50.63
2018-12-30T06:36:04.383Z,51.58
2018-12-30T06:36:39.752Z,51.70
2018-12-30T06:37:15.169Z,49.23
2018-12-30T06:37:50.478Z,49.58
2018-12-30T06:38:26.416Z,47.05
2018-12-30T06:39:01.842Z,49.95
2018-12-30T06:39:37.381Z,44.20
2018-12-30T06:40:12.829Z,44.08
2018-12-30T06:40:48.248Z,38.28
2018-12-30T06:41:23.977Z,48.73
2018-12-30T06:41:59.438Z,48.63
2018-12-30T06:42:34.981Z,41.88
2018-12-30T06:43:10.823Z,39.58
2018-12-30T06:43:46.460Z,38.48
2018-12-30T06:44:22.768Z,40.00
2018-12-30T06:44:58.099Z,40.20
2018-12-30T06:45:33.631Z,41.50
2018-12-30T06:46:09.090Z,36.53
2018-12-30T06:46:44.578Z,44.23
2018-12-30T06:47:20.106Z,41.10
2018-12-30T06:47:55.680Z,37.53
2018-12-30T06:48:31.989Z,39.65
2018-12-30T06:49:07.509Z,38.05
2018-12-30T06:49:42.995Z,42.90
2018-12-30T06:50:18.418Z,38.85
2018-12-30T06:50:54.080Z,44.27
2018-12-30T06:51:29.399Z,40.67
2018-12-30T06:52:05.091Z,41.58
2018-12-30T06:52:40.603Z,35.10
2018-12-30T06:53:15.981Z,34.53
2018-12-30T06:53:51.389Z,38.10
2018-12-30T06:54:27.031Z,40.83
2018-12-30T06:55:02.449Z,38.67
2018-12-30T06:55:37.929Z,41.37
2018-12-30T06:56:13.319Z,32.40
2018-12-30T06:56:48.942Z,35.17
2018-12-30T06:57:24.382Z,34.15
2018-12-30T06:58:00.019Z,37.85
2018-12-30T06:58:35.402Z,35.98
2018-12-30T06:59:10.611Z,37.85
2018-12-30T06:59:46.989Z,36.25
2018-12-30T07:00:22.563Z,36.58
2018-12-30T07:00:58.002Z,39.45
2018-12-30T07:01:33.441Z,42.50
2018-12-30T07:02:08.780Z,34.15
2018-12-30T07:02:44.284Z,37.53
2018-12-30T07:03:19.829Z,36.68
2018-12-30T07:03:55.191Z,42.13
2018-12-30T07:04:30.740Z,37.90
2018-12-30T07:05:06.154Z,32.98
2018-12-30T07:05:41.661Z,34.40
2018-12-30T07:06:17.320Z,40.52
2018-12-30T07:06:52.782Z,37.10
2018-12-30T07:07:28.241Z,42.55
2018-12-30T07:08:03.760Z,39.67
2018-12-30T07:08:39.303Z,38.70
2018-12-30T07:09:14.752Z,38.25
2018-12-30T07:09:50.104Z,37.88
2018-12-30T07:10:25.941Z,38.83
2018-12-30T07:11:01.462Z,36.17
2018-12-30T07:11:37.010Z,40.98
2018-12-30T07:12:14.231Z,39.63
2018-12-30T07:12:49.607Z,40.45
2018-12-30T07:13:25.081Z,40.88
2018-12-30T07:14:00.669Z,32.10
2018-12-30T07:14:36.113Z,40.35
2018-12-30T07:15:11.641Z,38.23
2018-12-30T07:15:48.848Z,41.30
2018-12-30T07:16:24.547Z,37.50
2018-12-30T07:17:00.100Z,40.12
2018-12-30T07:17:35.581Z,29.63
2018-12-30T07:18:10.920Z,34.40
2018-12-30T07:18:48.180Z,35.73
2018-12-30T07:19:23.623Z,38.38
2018-12-30T07:19:58.971Z,33.83
2018-12-30T07:20:34.703Z,38.23
2018-12-30T07:21:10.156Z,36.38
2018-12-30T07:21:45.551Z,36.68
2018-12-30T07:22:20.919Z,30.50
2018-12-30T07:22:56.349Z,29.10
2018-12-30T07:23:31.854Z,34.23
2018-12-30T07:24:07.701Z,28.07
2018-12-30T07:24:43.030Z,31.37
2018-12-30T07:25:18.462Z,34.23
2018-12-30T07:25:53.752Z,33.85
2018-12-30T07:26:29.351Z,30.62
2018-12-30T07:27:04.809Z,29.20
2018-12-30T07:27:40.305Z,31.48
2018-12-30T07:28:15.723Z,30.52
2018-12-30T07:28:51.119Z,32.35
2018-12-30T07:29:26.569Z,20.30
2018-12-30T07:30:02.148Z,27.27
2018-12-30T07:30:37.760Z,28.55
2018-12-30T07:31:13.271Z,26.73
2018-12-30T07:31:48.642Z,26.27
2018-12-30T07:32:24.250Z,26.68
2018-12-30T07:32:59.758Z,27.62
2018-12-30T07:33:35.240Z,28.92
2018-12-30T07:34:10.500Z,31.60
2018-12-30T07:34:45.893Z,30.70
2018-12-30T07:35:21.310Z,30.08
2018-12-30T07:35:56.700Z,28.62
2018-12-30T07:36:32.131Z,27.93
2018-12-30T07:37:08.029Z,30.30